Current Conditions
Clear
Conditions



Pressure
1020.62 (hPa) - 30.14 (inHG)
Visibility

9.9 (miles) - 16.0 (km)
   Temperature
72  °F
Temperature
45  °F
Dewpoint
38  %
 Humidity
   Wind Speed
3  mph
3  kts
5  km/h
1.3  m/s
   Wind Direction
N
45°
E
90°
135°
S
180°
225°
W
270°
315°
Calm

Due North
   Airport Data
KYIP
Willow Run Airport
Metar :KYIP 291653Z VRB03KT 10SM CLR 22/07 A3014 RMK AO2 SLP202 T02220067
Wed 29th September 12:53 pm
   Raw Metar Info
Raw METAR is the most common format in the world for the transmission of observational weather data. It is highly standardized through the International Civil Aviation Organization (ICAO), which allows it to be understood throughout most of the world.
   API Info
Data Provided by
https://www.checkwx.com/weather/KYIP

Aviation Weather providing METAR, TAF, AIRMET, SIGMET and OUTLOOK Weather Reports
   © Info
CSS/SVG/PHP scripts were developed by weather34.com for use in the weather34 template © 2015-2022

Guide Info provided by Metar-Wikipedia